This is the latest recevied weather packets stored in our database for station/object KI4MRC. If no packets are shown the sender has not sent any weather packets the latest 10 day(s).
| Time | Temp. | Humidity | Pressure | Rain* | Wind** | Luminosity | Snow |
|---|---|---|---|---|---|---|---|
| 1777577073 | 31.11° C | 55% | 1010.9 hPa | 0 mm | - | 140 W/m² | - |
| 1777576167 | 31.67° C | 52% | 1010.8 hPa | 0 mm | - | 212 W/m² | - |
| 1777575866 | 31.67° C | 52% | 1011 hPa | 0 mm | - | 247 W/m² | - |
| 1777575564 | 32.22° C | 53% | 1011 hPa | 0 mm | - | 441 W/m² | - |
| 1777575260 | 32.22° C | 52% | 1011.1 hPa | 0 mm | - | 565 W/m² | - |
| 1777573739 | 31.11° C | 55% | 1011.4 hPa | 0 mm | - | 202 W/m² | - |
| 1777573435 | 31.11° C | 56% | 1011.2 hPa | 0 mm | - | 197 W/m² | - |
| 1777573131 | 31.11° C | 54% | 1011.3 hPa | 0 mm | - | 298 W/m² | - |
| 1777572524 | 31.67° C | 51% | 1011.4 hPa | 0 mm | - | 534 W/m² | - |
| 1777572219 | 32.22° C | 50% | 1011.3 hPa | 0 mm | - | 1144 W/m² | - |
| 1777571610 | 32.22° C | 52% | 1011.4 hPa | 0 mm | - | 1086 W/m² | - |
| 1777568272 | 31.67° C | 53% | 1012 hPa | 0 mm | - | 1004 W/m² | - |
| 1777565544 | 31.11° C | 53% | 1012.4 hPa | 0 mm | - | 951 W/m² | - |
| 1777564937 | 30.56° C | 56% | 1012.7 hPa | 0 mm | - | 985 W/m² | - |
| 1777563416 | 31.11° C | 57% | 1013.1 hPa | 0 mm | - | 681 W/m² | - |
| 1777563111 | 31.11° C | 57% | 1013 hPa | 0 mm | - | 882 W/m² | - |
| 1777562505 | 30.56° C | 59% | 1013.2 hPa | 0 mm | - | 860 W/m² | - |
| 1777560688 | 30° C | 62% | 1013.2 hPa | 0 mm | - | 769 W/m² | - |
| 1777560386 | 30° C | 64% | 1013.2 hPa | 0 mm | - | 753 W/m² | - |
| 1777559174 | 29.44° C | 65% | 1013.2 hPa | 0 mm | - | 683 W/m² | - |
| 1777558873 | 28.89° C | 68% | 1013.1 hPa | 0 mm | - | 661 W/m² | - |
| 1777558569 | 28.89° C | 67% | 1013 hPa | 0 mm | - | 643 W/m² | - |
| 1777558265 | 28.33° C | 70% | 1013 hPa | 0 mm | - | 616 W/m² | - |
| 1777557961 | 27.78° C | 73% | 1013.1 hPa | 0 mm | - | 609 W/m² | - |
| 1777557354 | 27.22° C | 79% | 1012.8 hPa | 0 mm | - | 560 W/m² | - |
* Rain latest hour (hover to see other rain measurements)
** Current wind speed in m/s (hover to see current wind gust speed)